Galaxy Ace — D5CZ7 — position and weather

sailwx.info

Track history (hours):
 
Tides and Currents Weather Stations Pressure Air Temp Water Temp Dewpoint Dewpoint Depression Visibility Wind Speed Wind Dir Waves Ship Positions

Galaxy Ace

Last reported at 2018-Feb-12 06:57 UTC. Time now 2018-Feb-21 05:46 UTC.
Position N 39°23' W 073°52'.
Warning: this ship's position is 8 days out of date.

Length 199 m; draft 9.2 m.

Type: Cargo ship. MMSI: 636015819.

Date/timePositionNaut miles runAvg speedWind from/ knotsBaromVisibWave heightAir tempDewpointWater temp
2018-Feb-12 06:57N 39°23' W 073°52'1416.1
2018-Feb-12 06:04N 39°37' W 073°51'216.5
2018-Feb-12 05:56N 39°39' W 073°51'716.7
2018-Feb-12 05:30N 39°47' W 073°51'1016.6
2018-Feb-12 04:52N 39°57' W 073°51'2212.1
2018-Feb-12 03:05N 40°19' W 073°49'1 9.6
2018-Feb-12 02:57N 40°20' W 073°49'4 9.7
2018-Feb-12 02:30N 40°24' W 073°49'4 8.6
2018-Feb-12 01:59N 40°28' W 073°52'5 9.6
2018-Feb-12 01:30N 40°30' W 073°58'5 9.1
2018-Feb-12 01:00N 40°33' W 074°02'510.2
2018-Feb-12 00:30N 40°38' W 074°03'4 7.3
2018-Feb-12 00:00N 40°39' W 074°08'2 4.7
2018-Feb-11 23:30N 40°41' W 074°08'1 2.0
2018-Feb-11 23:00N 40°42' W 074°09'0 0.0
2018-Feb-11 22:30N 40°42' W 074°09'0 0.0
2018-Feb-11 22:00N 40°42' W 074°09'0 0.0
2018-Feb-11 21:30N 40°42' W 074°09'0 0.0
2018-Feb-11 21:00N 40°42' W 074°09'0 0.0
2018-Feb-11 20:30N 40°42' W 074°09'0 0.0
2018-Feb-11 20:00N 40°42' W 074°09'0 0.0
2018-Feb-11 19:30N 40°42' W 074°09'0 0.0
2018-Feb-11 19:00N 40°42' W 074°09'0 0.0
2018-Feb-11 18:30N 40°42' W 074°09'0 0.0
2018-Feb-11 18:00N 40°42' W 074°09'1 1.1
2018-Feb-11 17:30N 40°41' W 074°08'3 5.5
2018-Feb-11 17:00N 40°39' W 074°09'3 6.4
2018-Feb-11 16:30N 40°39' W 074°05'2 3.4
2018-Feb-11 15:59N 40°38' W 074°04'0 0.0
2018-Feb-11 15:29N 40°38' W 074°04'0 0.0
2018-Feb-11 14:59N 40°38' W 074°04'0 0.1
2018-Feb-11 14:30N 40°38' W 074°04'0 0.1
2018-Feb-11 14:01N 40°38' W 074°04'0 0.0
2018-Feb-11 13:28N 40°38' W 074°04'0 0.1
2018-Feb-11 12:58N 40°38' W 074°04'2 4.6
2018-Feb-11 12:30N 40°36' W 074°02'5 9.5
2018-Feb-11 12:00N 40°31' W 073°60'510.1
2018-Feb-11 11:30N 40°29' W 073°54'5 9.3
2018-Feb-11 10:59N 40°27' W 073°48'3 6.4
2018-Feb-11 10:28N 40°25' W 073°45'4 8.0
2018-Feb-11 10:00N 40°23' W 073°41'  
2018-Feb-02 12:43N 49°41' W 004°25'418.7
2018-Feb-02 12:30N 49°44' W 004°21'918.7
2018-Feb-02 12:00N 49°49' W 004°09'918.4
2018-Feb-02 11:30N 49°55' W 003°58'917.9
2018-Feb-02 11:00N 49°60' W 003°46'917.3
2018-Feb-02 10:30N 50°05' W 003°35'816.3
2018-Feb-02 10:00N 50°12' W 003°30'816.1
2018-Feb-02 09:30N 50°20' W 003°27'510.2
2018-Feb-02 09:01N 50°25' W 003°25'613.0
2018-Feb-02 08:31N 50°25' W 003°15'816.0
2018-Feb-02 08:01N 50°25' W 003°03'815.9
2018-Feb-02 07:30N 50°25' W 002°50'815.8
2018-Feb-02 07:01N 50°25' W 002°38'  
Track history (hours):
 
Tides and Currents Weather Stations Pressure Air Temp Water Temp Dewpoint Dewpoint Depression Visibility Wind Speed Wind Dir Waves Ship Positions

Galaxy Ace

Last reported at 2018-Feb-12 06:57 UTC. Time now 2018-Feb-21 05:46 UTC.
Position N 39°23' W 073°52'.
Warning: this ship's position is 8 days out of date.

Length 199 m; draft 9.2 m.

Type: Cargo ship. MMSI: 636015819.

Date/timePositionNaut miles runAvg speedWind from/ knotsBaromVisibWave heightAir tempDewpointWater temp
2018-Feb-12 06:57N 39°23' W 073°52'1416.1
2018-Feb-12 06:04N 39°37' W 073°51'216.5
2018-Feb-12 05:56N 39°39' W 073°51'716.7
2018-Feb-12 05:30N 39°47' W 073°51'1016.6
2018-Feb-12 04:52N 39°57' W 073°51'2212.1
2018-Feb-12 03:05N 40°19' W 073°49'1 9.6
2018-Feb-12 02:57N 40°20' W 073°49'4 9.7
2018-Feb-12 02:30N 40°24' W 073°49'4 8.6
2018-Feb-12 01:59N 40°28' W 073°52'5 9.6
2018-Feb-12 01:30N 40°30' W 073°58'5 9.1
2018-Feb-12 01:00N 40°33' W 074°02'510.2
2018-Feb-12 00:30N 40°38' W 074°03'4 7.3
2018-Feb-12 00:00N 40°39' W 074°08'2 4.7
2018-Feb-11 23:30N 40°41' W 074°08'1 2.0
2018-Feb-11 23:00N 40°42' W 074°09'0 0.0
2018-Feb-11 22:30N 40°42' W 074°09'0 0.0
2018-Feb-11 22:00N 40°42' W 074°09'0 0.0
2018-Feb-11 21:30N 40°42' W 074°09'0 0.0
2018-Feb-11 21:00N 40°42' W 074°09'0 0.0
2018-Feb-11 20:30N 40°42' W 074°09'0 0.0
2018-Feb-11 20:00N 40°42' W 074°09'0 0.0
2018-Feb-11 19:30N 40°42' W 074°09'0 0.0
2018-Feb-11 19:00N 40°42' W 074°09'0 0.0
2018-Feb-11 18:30N 40°42' W 074°09'0 0.0
2018-Feb-11 18:00N 40°42' W 074°09'1 1.1
2018-Feb-11 17:30N 40°41' W 074°08'3 5.5
2018-Feb-11 17:00N 40°39' W 074°09'3 6.4
2018-Feb-11 16:30N 40°39' W 074°05'2 3.4
2018-Feb-11 15:59N 40°38' W 074°04'0 0.0
2018-Feb-11 15:29N 40°38' W 074°04'0 0.0
2018-Feb-11 14:59N 40°38' W 074°04'0 0.1
2018-Feb-11 14:30N 40°38' W 074°04'0 0.1
2018-Feb-11 14:01N 40°38' W 074°04'0 0.0
2018-Feb-11 13:28N 40°38' W 074°04'0 0.1
2018-Feb-11 12:58N 40°38' W 074°04'2 4.6
2018-Feb-11 12:30N 40°36' W 074°02'5 9.5
2018-Feb-11 12:00N 40°31' W 073°60'510.1
2018-Feb-11 11:30N 40°29' W 073°54'5 9.3
2018-Feb-11 10:59N 40°27' W 073°48'3 6.4
2018-Feb-11 10:28N 40°25' W 073°45'4 8.0
2018-Feb-11 10:00N 40°23' W 073°41'  
2018-Feb-02 12:43N 49°41' W 004°25'418.7
2018-Feb-02 12:30N 49°44' W 004°21'918.7
2018-Feb-02 12:00N 49°49' W 004°09'918.4
2018-Feb-02 11:30N 49°55' W 003°58'917.9
2018-Feb-02 11:00N 49°60' W 003°46'917.3
2018-Feb-02 10:30N 50°05' W 003°35'816.3
2018-Feb-02 10:00N 50°12' W 003°30'816.1
2018-Feb-02 09:30N 50°20' W 003°27'510.2
2018-Feb-02 09:01N 50°25' W 003°25'613.0
2018-Feb-02 08:31N 50°25' W 003°15'816.0
2018-Feb-02 08:01N 50°25' W 003°03'815.9
2018-Feb-02 07:30N 50°25' W 002°50'815.8
2018-Feb-02 07:01N 50°25' W 002°38'  

Dump ship's entire track history